sensor_id;sensor_type;location;lat;lon;timestamp;pressure;altitude;pressure_sealevel;temperature;humidity
31225;BME280;17847;31.524;74.366;2023-05-01T00:02:26;98217.97;;;23.06;63.92
31225;BME280;17847;31.524;74.366;2023-05-01T00:04:56;98223.09;;;23.08;64.70
31225;BME280;17847;31.524;74.366;2023-05-01T00:07:25;98222.06;;;23.04;64.27
31225;BME280;17847;31.524;74.366;2023-05-01T00:09:58;98225.03;;;23.02;64.77
31225;BME280;17847;31.524;74.366;2023-05-01T00:12:28;98223.13;;;23.03;64.87
31225;BME280;17847;31.524;74.366;2023-05-01T00:14:57;98215.34;;;23.01;64.56
31225;BME280;17847;31.524;74.366;2023-05-01T00:17:26;98229.88;;;23.05;64.47
31225;BME280;17847;31.524;74.366;2023-05-01T00:19:55;98228.03;;;23.01;64.67
31225;BME280;17847;31.524;74.366;2023-05-01T00:22:26;98245.56;;;23.03;64.70
31225;BME280;17847;31.524;74.366;2023-05-01T00:24:55;98246.94;;;23.01;64.69
31225;BME280;17847;31.524;74.366;2023-05-01T00:27:24;98259.09;;;22.98;64.32
31225;BME280;17847;31.524;74.366;2023-05-01T00:29:54;98259.91;;;22.99;65.00
31225;BME280;17847;31.524;74.366;2023-05-01T00:32:25;98260.19;;;22.97;64.59
31225;BME280;17847;31.524;74.366;2023-05-01T00:34:55;98276.16;;;22.94;64.86
31225;BME280;17847;31.524;74.366;2023-05-01T00:37:25;98274.25;;;22.94;64.86
31225;BME280;17847;31.524;74.366;2023-05-01T00:39:54;98275.06;;;22.95;64.54
31225;BME280;17847;31.524;74.366;2023-05-01T00:42:25;98276.97;;;22.94;65.36
31225;BME280;17847;31.524;74.366;2023-05-01T00:44:54;98274.31;;;22.89;64.64
31225;BME280;17847;31.524;74.366;2023-05-01T00:47:23;98278.66;;;22.85;65.01
31225;BME280;17847;31.524;74.366;2023-05-01T00:49:54;98278.09;;;22.88;65.13
31225;BME280;17847;31.524;74.366;2023-05-01T00:52:24;98282.94;;;22.91;65.36
31225;BME280;17847;31.524;74.366;2023-05-01T00:54:54;98282.41;;;22.89;64.79
31225;BME280;17847;31.524;74.366;2023-05-01T00:57:24;98282.94;;;22.91;65.04
31225;BME280;17847;31.524;74.366;2023-05-01T00:59:53;98291.84;;;22.92;64.93
31225;BME280;17847;31.524;74.366;2023-05-01T01:02:23;98301.63;;;22.88;64.82
31225;BME280;17847;31.524;74.366;2023-05-01T01:04:52;98304.81;;;22.90;64.95
31225;BME280;17847;31.524;74.366;2023-05-01T01:07:32;98316.47;;;22.85;64.61
31225;BME280;17847;31.524;74.366;2023-05-01T01:10:46;98319.13;;;22.90;65.17
31225;BME280;17847;31.524;74.366;2023-05-01T01:13:19;98323.50;;;22.86;65.07
31225;BME280;17847;31.524;74.366;2023-05-01T01:16:05;98322.50;;;22.67;64.39
31225;BME280;17847;31.524;74.366;2023-05-01T01:19:05;98334.72;;;22.54;64.48
31225;BME280;17847;31.524;74.366;2023-05-01T01:21:45;98339.91;;;22.46;64.79
31225;BME280;17847;31.524;74.366;2023-05-01T01:36:05;98346.97;;;22.31;65.16
31225;BME280;17847;31.524;74.366;2023-05-01T01:38:41;98356.13;;;22.40;64.81
31225;BME280;17847;31.524;74.366;2023-05-01T01:41:16;98354.78;;;22.43;65.23
31225;BME280;17847;31.524;74.366;2023-05-01T01:43:54;98362.56;;;22.50;65.07
31225;BME280;17847;31.524;74.366;2023-05-01T01:48:57;98371.47;;;22.45;65.09
31225;BME280;17847;31.524;74.366;2023-05-01T01:51:28;98380.56;;;22.64;65.31
31225;BME280;17847;31.524;74.366;2023-05-01T01:53:59;98376.00;;;22.60;64.83
31225;BME280;17847;31.524;74.366;2023-05-01T01:56:30;98378.13;;;22.63;65.33
31225;BME280;17847;31.524;74.366;2023-05-01T01:59:02;98385.06;;;22.84;64.85
31225;BME280;17847;31.524;74.366;2023-05-01T02:01:34;98390.81;;;22.67;65.20
31225;BME280;17847;31.524;74.366;2023-05-01T02:04:04;98397.44;;;22.95;65.01
31225;BME280;17847;31.524;74.366;2023-05-01T02:06:37;98397.38;;;23.05;65.50
31225;BME280;17847;31.524;74.366;2023-05-01T02:09:08;98404.63;;;23.10;64.81
31225;BME280;17847;31.524;74.366;2023-05-01T02:11:39;98417.38;;;23.04;64.63
31225;BME280;17847;31.524;74.366;2023-05-01T02:14:10;98409.78;;;23.06;65.37
31225;BME280;17847;31.524;74.366;2023-05-01T02:16:41;98419.94;;;23.19;65.02
31225;BME280;17847;31.524;74.366;2023-05-01T02:19:13;98422.63;;;23.24;65.10
31225;BME280;17847;31.524;74.366;2023-05-01T02:21:44;98436.63;;;23.32;65.48
31225;BME280;17847;31.524;74.366;2023-05-01T02:24:16;98438.19;;;23.38;65.56
31225;BME280;17847;31.524;74.366;2023-05-01T02:26:51;98434.19;;;23.30;64.82
31225;BME280;17847;31.524;74.366;2023-05-01T02:29:22;98442.09;;;23.21;64.93
31225;BME280;17847;31.524;74.366;2023-05-01T02:31:53;98438.91;;;23.14;65.05
31225;BME280;17847;31.524;74.366;2023-05-01T02:34:23;98446.97;;;23.19;65.12
31225;BME280;17847;31.524;74.366;2023-05-01T02:36:52;98437.47;;;23.27;65.21
31225;BME280;17847;31.524;74.366;2023-05-01T02:39:22;98434.44;;;23.34;65.38
31225;BME280;17847;31.524;74.366;2023-05-01T02:41:52;98447.16;;;23.33;65.05
31225;BME280;17847;31.524;74.366;2023-05-01T02:44:24;98456.09;;;23.28;65.11
31225;BME280;17847;31.524;74.366;2023-05-01T02:46:55;98452.31;;;23.29;65.17
31225;BME280;17847;31.524;74.366;2023-05-01T02:49:26;98462.06;;;23.25;64.96
31225;BME280;17847;31.524;74.366;2023-05-01T02:51:56;98469.63;;;23.23;64.90
31225;BME280;17847;31.524;74.366;2023-05-01T02:54:26;98470.75;;;23.22;64.94
31225;BME280;17847;31.524;74.366;2023-05-01T02:56:57;98480.97;;;23.25;65.08
31225;BME280;17847;31.524;74.366;2023-05-01T02:59:27;98483.16;;;23.23;65.15
31225;BME280;17847;31.524;74.366;2023-05-01T03:01:56;98498.28;;;23.24;65.15
31225;BME280;17847;31.524;74.366;2023-05-01T03:04:26;98503.16;;;23.27;65.46
31225;BME280;17847;31.524;74.366;2023-05-01T03:06:55;98499.66;;;23.22;65.43
31225;BME280;17847;31.524;74.366;2023-05-01T03:09:25;98505.34;;;23.20;65.57
31225;BME280;17847;31.524;74.366;2023-05-01T03:11:55;98513.75;;;23.19;65.57
31225;BME280;17847;31.524;74.366;2023-05-01T03:14:25;98518.28;;;23.23;65.68
31225;BME280;17847;31.524;74.366;2023-05-01T03:16:56;98523.97;;;23.27;65.81
31225;BME280;17847;31.524;74.366;2023-05-01T03:19:25;98531.84;;;23.18;65.46
31225;BME280;17847;31.524;74.366;2023-05-01T03:21:55;98530.78;;;23.14;65.80
31225;BME280;17847;31.524;74.366;2023-05-01T03:24:24;98531.84;;;23.18;66.36
31225;BME280;17847;31.524;74.366;2023-05-01T03:26:54;98530.19;;;23.22;66.55
31225;BME280;17847;31.524;74.366;2023-05-01T03:29:23;98542.09;;;23.16;66.71
31225;BME280;17847;31.524;74.366;2023-05-01T03:31:52;98542.34;;;23.20;67.22
31225;BME280;17847;31.524;74.366;2023-05-01T03:34:22;98546.72;;;23.11;67.23
31225;BME280;17847;31.524;74.366;2023-05-01T03:36:53;98544.91;;;23.01;67.67
31225;BME280;17847;31.524;74.366;2023-05-01T03:39:25;98544.84;;;23.06;68.05
31225;BME280;17847;31.524;74.366;2023-05-01T03:42:17;98546.81;;;22.96;67.89
31225;BME280;17847;31.524;74.366;2023-05-01T03:44:48;98546.25;;;22.94;68.25
31225;BME280;17847;31.524;74.366;2023-05-01T03:47:18;98557.13;;;22.83;68.13
31225;BME280;17847;31.524;74.366;2023-05-01T03:49:48;98564.66;;;22.81;68.39
31225;BME280;17847;31.524;74.366;2023-05-01T03:52:17;98560.09;;;22.77;68.62
31225;BME280;17847;31.524;74.366;2023-05-01T03:54:48;98565.50;;;22.72;68.50
31225;BME280;17847;31.524;74.366;2023-05-01T03:57:47;98560.91;;;22.72;68.71
31225;BME280;17847;31.524;74.366;2023-05-01T04:00:16;98569.81;;;22.78;69.32
31225;BME280;17847;31.524;74.366;2023-05-01T04:02:47;98574.13;;;22.69;69.17
31225;BME280;17847;31.524;74.366;2023-05-01T04:05:21;98572.81;;;22.41;69.41
31225;BME280;17847;31.524;74.366;2023-05-01T04:07:56;98578.00;;;22.12;70.17
31225;BME280;17847;31.524;74.366;2023-05-01T04:10:25;98574.72;;;22.05;74.09
31225;BME280;17847;31.524;74.366;2023-05-01T04:13:03;98576.59;;;21.84;75.02
31225;BME280;17847;31.524;74.366;2023-05-01T04:15:34;98578.47;;;21.79;75.59
31225;BME280;17847;31.524;74.366;2023-05-01T04:18:04;98574.66;;;21.65;76.34
31225;BME280;17847;31.524;74.366;2023-05-01T04:20:34;98578.97;;;21.50;75.89
31225;BME280;17847;31.524;74.366;2023-05-01T04:23:03;98574.13;;;21.58;76.86
31225;BME280;17847;31.524;74.366;2023-05-01T04:25:34;98583.84;;;21.74;75.64
31225;BME280;17847;31.524;74.366;2023-05-01T04:28:10;98586.56;;;21.84;76.25
31225;BME280;17847;31.524;74.366;2023-05-01T04:30:40;98581.66;;;21.56;76.78
31225;BME280;17847;31.524;74.366;2023-05-01T04:33:09;98581.66;;;21.45;77.50
31225;BME280;17847;31.524;74.366;2023-05-01T04:35:42;98578.66;;;21.47;77.93
31225;BME280;17847;31.524;74.366;2023-05-01T04:38:11;98578.97;;;21.61;76.74
31225;BME280;17847;31.524;74.366;2023-05-01T04:40:41;98585.38;;;21.39;76.69
31225;BME280;17847;31.524;74.366;2023-05-01T04:43:10;98586.97;;;21.30;77.38
31225;BME280;17847;31.524;74.366;2023-05-01T04:45:40;98594.81;;;21.32;77.68
31225;BME280;17847;31.524;74.366;2023-05-01T04:48:10;98599.91;;;21.28;78.24
31225;BME280;17847;31.524;74.366;2023-05-01T04:50:39;98598.88;;;21.44;79.44
31225;BME280;17847;31.524;74.366;2023-05-01T04:53:09;98596.53;;;21.88;78.24
31225;BME280;17847;31.524;74.366;2023-05-01T04:55:39;98594.91;;;21.82;76.30
31225;BME280;17847;31.524;74.366;2023-05-01T04:58:17;98610.59;;;21.90;76.80
31225;BME280;17847;31.524;74.366;2023-05-01T05:00:50;98615.16;;;21.85;77.39
31225;BME280;17847;31.524;74.366;2023-05-01T05:03:22;98614.41;;;22.25;76.24
31225;BME280;17847;31.524;74.366;2023-05-01T05:05:52;98616.56;;;22.43;75.77
31225;BME280;17847;31.524;74.366;2023-05-01T05:08:23;98617.63;;;22.52;75.11
31225;BME280;17847;31.524;74.366;2023-05-01T05:11:00;98617.88;;;22.61;75.12
31225;BME280;17847;31.524;74.366;2023-05-01T05:13:36;98623.28;;;22.66;74.75
31225;BME280;17847;31.524;74.366;2023-05-01T05:16:11;98620.28;;;22.67;76.00
31225;BME280;17847;31.524;74.366;2023-05-01T05:18:42;98624.34;;;22.75;75.00
31225;BME280;17847;31.524;74.366;2023-05-01T05:21:11;98626.78;;;22.81;75.02
31225;BME280;17847;31.524;74.366;2023-05-01T05:23:47;98619.75;;;22.86;74.64
31225;BME280;17847;31.524;74.366;2023-05-01T05:26:17;98621.91;;;22.89;74.35
31225;BME280;17847;31.524;74.366;2023-05-01T05:28:48;98616.47;;;22.94;74.07
31225;BME280;17847;31.524;74.366;2023-05-01T05:31:18;98614.06;;;22.92;73.79
31225;BME280;17847;31.524;74.366;2023-05-01T05:33:48;98624.31;;;22.95;73.46
31225;BME280;17847;31.524;74.366;2023-05-01T05:36:17;98624.06;;;22.97;73.64
31225;BME280;17847;31.524;74.366;2023-05-01T05:38:47;98614.94;;;22.52;74.54
31225;BME280;17847;31.524;74.366;2023-05-01T05:41:18;98619.53;;;22.47;75.35
31225;BME280;17847;31.524;74.366;2023-05-01T05:43:50;98612.50;;;22.61;75.14
31225;BME280;17847;31.524;74.366;2023-05-01T05:46:22;98605.16;;;22.66;75.94
31225;BME280;17847;31.524;74.366;2023-05-01T05:48:51;98613.84;;;22.83;76.42
31225;BME280;17847;31.524;74.366;2023-05-01T05:51:21;98603.28;;;22.67;76.24
31225;BME280;17847;31.524;74.366;2023-05-01T05:53:51;98603.06;;;22.48;76.17
31225;BME280;17847;31.524;74.366;2023-05-01T05:56:21;98596.28;;;22.76;75.43
31225;BME280;17847;31.524;74.366;2023-05-01T05:58:52;98602.22;;;22.83;75.22
31225;BME280;17847;31.524;74.366;2023-05-01T06:01:22;98593.28;;;22.88;74.64
31225;BME280;17847;31.524;74.366;2023-05-01T06:03:52;98595.19;;;22.77;74.28
31225;BME280;17847;31.524;74.366;2023-05-01T06:06:24;98600.56;;;22.87;74.12
31225;BME280;17847;31.524;74.366;2023-05-01T06:08:54;98590.84;;;22.91;74.32
31225;BME280;17847;31.524;74.366;2023-05-01T06:11:24;98580.28;;;22.95;73.88
31225;BME280;17847;31.524;74.366;2023-05-01T06:13:55;98572.72;;;22.97;73.70
31225;BME280;17847;31.524;74.366;2023-05-01T06:16:26;98577.84;;;22.98;73.71
31225;BME280;17847;31.524;74.366;2023-05-01T06:18:56;98566.78;;;23.00;73.34
31225;BME280;17847;31.524;74.366;2023-05-01T06:21:26;98564.94;;;22.75;73.15
31225;BME280;17847;31.524;74.366;2023-05-01T06:23:56;98559.31;;;22.61;73.80
31225;BME280;17847;31.524;74.366;2023-05-01T06:26:29;98566.63;;;22.46;74.06
31225;BME280;17847;31.524;74.366;2023-05-01T06:28:59;98555.31;;;22.28;74.04
31225;BME280;17847;31.524;74.366;2023-05-01T06:31:28;98550.19;;;22.12;74.80
31225;BME280;17847;31.524;74.366;2023-05-01T06:33:58;98544.00;;;22.06;74.94
31225;BME280;17847;31.524;74.366;2023-05-01T06:36:33;98534.47;;;21.43;77.16
31225;BME280;17847;31.524;74.366;2023-05-01T06:39:03;98529.91;;;21.74;78.06
31225;BME280;17847;31.524;74.366;2023-05-01T06:41:33;98527.28;;;21.94;77.44
31225;BME280;17847;31.524;74.366;2023-05-01T06:44:04;98524.00;;;22.22;77.18
31225;BME280;17847;31.524;74.366;2023-05-01T06:46:33;98516.97;;;22.47;76.22
31225;BME280;17847;31.524;74.366;2023-05-01T06:49:02;98510.91;;;22.85;75.12
31225;BME280;17847;31.524;74.366;2023-05-01T06:51:32;98511.63;;;23.06;74.15
31225;BME280;17847;31.524;74.366;2023-05-01T06:54:01;98506.50;;;23.09;72.49
31225;BME280;17847;31.524;74.366;2023-05-01T06:56:31;98510.09;;;22.84;71.82
31225;BME280;17847;31.524;74.366;2023-05-01T06:59:01;98501.47;;;22.82;74.29
31225;BME280;17847;31.524;74.366;2023-05-01T07:01:31;98496.22;;;23.06;73.84
31225;BME280;17847;31.524;74.366;2023-05-01T07:04:02;98505.75;;;23.43;72.61
31225;BME280;17847;31.524;74.366;2023-05-01T07:06:32;98496.63;;;23.72;70.35
31225;BME280;17847;31.524;74.366;2023-05-01T07:09:03;98502.22;;;23.81;71.37
31225;BME280;17847;31.524;74.366;2023-05-01T07:11:37;98486.81;;;23.43;70.73
31225;BME280;17847;31.524;74.366;2023-05-01T07:14:08;98482.81;;;22.91;71.42
31225;BME280;17847;31.524;74.366;2023-05-01T07:16:38;98476.41;;;22.72;70.40
31225;BME280;17847;31.524;74.366;2023-05-01T07:19:08;98473.50;;;22.48;71.34
31225;BME280;17847;31.524;74.366;2023-05-01T07:21:39;98469.31;;;22.91;72.63
31225;BME280;17847;31.524;74.366;2023-05-01T07:24:09;98469.66;;;22.59;70.55
31225;BME280;17847;31.524;74.366;2023-05-01T07:26:40;98468.28;;;22.72;72.43
31225;BME280;17847;31.524;74.366;2023-05-01T07:29:09;98471.56;;;22.54;72.15
31225;BME280;17847;31.524;74.366;2023-05-01T07:31:41;98459.66;;;22.65;70.39
31225;BME280;17847;31.524;74.366;2023-05-01T07:34:11;98459.47;;;22.41;71.89
31225;BME280;17847;31.524;74.366;2023-05-01T07:36:41;98449.38;;;22.77;72.16
31225;BME280;17847;31.524;74.366;2023-05-01T07:39:10;98442.38;;;23.20;71.30
31225;BME280;17847;31.524;74.366;2023-05-01T07:41:39;98435.94;;;23.11;69.98
31225;BME280;17847;31.524;74.366;2023-05-01T07:44:09;98431.88;;;23.57;70.01
31225;BME280;17847;31.524;74.366;2023-05-01T07:46:38;98432.53;;;23.39;68.42
31225;BME280;17847;31.524;74.366;2023-05-01T07:49:08;98419.91;;;23.24;69.22
31225;BME280;17847;31.524;74.366;2023-05-01T07:51:37;98417.53;;;23.18;70.90
31225;BME280;17847;31.524;74.366;2023-05-01T07:54:07;98404.41;;;23.40;70.64
31225;BME280;17847;31.524;74.366;2023-05-01T07:56:36;98401.59;;;23.55;68.99
31225;BME280;17847;31.524;74.366;2023-05-01T07:59:06;98398.50;;;23.72;68.05
31225;BME280;17847;31.524;74.366;2023-05-01T08:01:36;98393.00;;;23.43;69.01
31225;BME280;17847;31.524;74.366;2023-05-01T08:04:06;98395.78;;;23.33;68.90
31225;BME280;17847;31.524;74.366;2023-05-01T08:06:35;98386.28;;;23.41;70.02
31225;BME280;17847;31.524;74.366;2023-05-01T08:09:05;98380.63;;;23.71;68.97
31225;BME280;17847;31.524;74.366;2023-05-01T08:11:34;98373.53;;;23.80;69.04
31225;BME280;17847;31.524;74.366;2023-05-01T08:14:04;98366.25;;;23.99;68.50
31225;BME280;17847;31.524;74.366;2023-05-01T08:16:34;98358.41;;;24.03;68.61
31225;BME280;17847;31.524;74.366;2023-05-01T08:19:03;98355.94;;;23.78;67.48
31225;BME280;17847;31.524;74.366;2023-05-01T08:21:33;98350.72;;;23.86;67.64
31225;BME280;17847;31.524;74.366;2023-05-01T08:24:03;98351.19;;;23.93;68.15
31225;BME280;17847;31.524;74.366;2023-05-01T08:26:33;98352.63;;;24.09;67.81
31225;BME280;17847;31.524;74.366;2023-05-01T08:29:02;98349.69;;;24.06;67.25
31225;BME280;17847;31.524;74.366;2023-05-01T08:31:31;98347.75;;;24.11;67.81
31225;BME280;17847;31.524;74.366;2023-05-01T08:34:06;98345.97;;;24.26;68.18
31225;BME280;17847;31.524;74.366;2023-05-01T08:36:35;98344.47;;;24.38;68.08
31225;BME280;17847;31.524;74.366;2023-05-01T08:39:06;98349.56;;;24.40;67.53
31225;BME280;17847;31.524;74.366;2023-05-01T08:41:36;98351.50;;;24.15;66.50
31225;BME280;17847;31.524;74.366;2023-05-01T08:44:07;98346.13;;;24.34;67.68
31225;BME280;17847;31.524;74.366;2023-05-01T08:49:27;98339.78;;;24.44;66.90
31225;BME280;17847;31.524;74.366;2023-05-01T08:52:02;98341.53;;;24.53;67.27
31225;BME280;17847;31.524;74.366;2023-05-01T08:54:32;98334.75;;;24.56;67.13
31225;BME280;17847;31.524;74.366;2023-05-01T08:57:03;98332.47;;;24.63;67.17
31225;BME280;17847;31.524;74.366;2023-05-01T08:59:38;98330.19;;;24.70;67.33
31225;BME280;17847;31.524;74.366;2023-05-01T09:02:08;98316.28;;;24.77;67.23
31225;BME280;17847;31.524;74.366;2023-05-01T09:04:39;98324.22;;;24.73;67.03
31225;BME280;17847;31.524;74.366;2023-05-01T09:07:09;98312.34;;;24.50;65.47
31225;BME280;17847;31.524;74.366;2023-05-01T09:09:40;98305.47;;;24.58;67.25
31225;BME280;17847;31.524;74.366;2023-05-01T09:12:26;98307.16;;;24.54;66.81
31225;BME280;17847;31.524;74.366;2023-05-01T09:14:56;98307.22;;;24.68;67.06
31225;BME280;17847;31.524;74.366;2023-05-01T09:17:26;98308.53;;;24.70;67.52
31225;BME280;17847;31.524;74.366;2023-05-01T09:19:57;98298.56;;;24.66;67.57
31225;BME280;17847;31.524;74.366;2023-05-01T09:22:29;98290.59;;;24.74;67.33
31225;BME280;17847;31.524;74.366;2023-05-01T09:25:00;98284.31;;;24.60;67.01
31225;BME280;17847;31.524;74.366;2023-05-01T09:27:34;98283.94;;;24.48;65.65
31225;BME280;17847;31.524;74.366;2023-05-01T09:30:04;98286.44;;;24.63;67.47
31225;BME280;17847;31.524;74.366;2023-05-01T09:32:35;98285.91;;;24.80;66.99
31225;BME280;17847;31.524;74.366;2023-05-01T09:35:14;98277.56;;;24.95;67.05
31225;BME280;17847;31.524;74.366;2023-05-01T09:37:48;98269.78;;;25.07;66.75
31225;BME280;17847;31.524;74.366;2023-05-01T09:40:26;98262.28;;;25.18;66.74
31225;BME280;17847;31.524;74.366;2023-05-01T09:42:55;98268.63;;;25.27;66.18
31225;BME280;17847;31.524;74.366;2023-05-01T09:45:26;98265.81;;;25.32;66.01
31225;BME280;17847;31.524;74.366;2023-05-01T09:48:07;98260.28;;;25.37;65.99
31225;BME280;17847;31.524;74.366;2023-05-01T09:50:40;98259.72;;;25.40;65.65
31225;BME280;17847;31.524;74.366;2023-05-01T09:53:10;98258.31;;;25.42;65.79
31225;BME280;17847;31.524;74.366;2023-05-01T09:55:41;98248.88;;;25.40;65.37
31225;BME280;17847;31.524;74.366;2023-05-01T09:58:25;98250.97;;;25.43;65.29
31225;BME280;17847;31.524;74.366;2023-05-01T10:00:55;98247.16;;;25.44;64.59
31225;BME280;17847;31.524;74.366;2023-05-01T10:03:26;98245.56;;;25.43;64.58
31225;BME280;17847;31.524;74.366;2023-05-01T10:05:55;98243.31;;;25.45;64.76
31225;BME280;17847;31.524;74.366;2023-05-01T10:08:47;98243.75;;;25.52;64.53
31225;BME280;17847;31.524;74.366;2023-05-01T10:11:17;98239.84;;;25.58;64.91
31225;BME280;17847;31.524;74.366;2023-05-01T10:14:07;98237.94;;;25.59;64.19
31225;BME280;17847;31.524;74.366;2023-05-01T10:16:38;98239.28;;;25.61;64.38
31225;BME280;17847;31.524;74.366;2023-05-01T10:19:09;98229.72;;;25.64;64.31
31225;BME280;17847;31.524;74.366;2023-05-01T10:21:39;98225.91;;;25.65;64.16
31225;BME280;17847;31.524;74.366;2023-05-01T10:24:08;98234.03;;;25.65;64.28
31225;BME280;17847;31.524;74.366;2023-05-01T10:26:39;98221.66;;;25.59;64.18
31225;BME280;17847;31.524;74.366;2023-05-01T10:29:11;98216.66;;;25.66;64.42
31225;BME280;17847;31.524;74.366;2023-05-01T10:31:41;98210.44;;;25.65;64.13
31225;BME280;17847;31.524;74.366;2023-05-01T10:34:15;98222.38;;;25.64;64.25
31225;BME280;17847;31.524;74.366;2023-05-01T10:36:51;98214.25;;;25.64;64.34
31225;BME280;17847;31.524;74.366;2023-05-01T10:39:33;98211.03;;;25.62;64.24
31225;BME280;17847;31.524;74.366;2023-05-01T10:42:12;98205.19;;;25.55;64.06
31225;BME280;17847;31.524;74.366;2023-05-01T10:44:42;98208.78;;;25.50;63.00
31225;BME280;17847;31.524;74.366;2023-05-01T10:50:07;98199.16;;;25.44;62.99
31225;BME280;17847;31.524;74.366;2023-05-01T10:55:45;98187.91;;;25.51;64.30
31225;BME280;17847;31.524;74.366;2023-05-01T11:01:31;98164.31;;;25.52;64.11
31225;BME280;17847;31.524;74.366;2023-05-01T11:04:04;98167.09;;;25.46;64.23
31225;BME280;17847;31.524;74.366;2023-05-01T11:06:36;98160.88;;;25.46;64.75
31225;BME280;17847;31.524;74.366;2023-05-01T11:12:10;98152.66;;;25.51;65.07
31225;BME280;17847;31.524;74.366;2023-05-01T11:20:13;98151.84;;;25.50;64.78
31225;BME280;17847;31.524;74.366;2023-05-01T11:23:02;98152.66;;;25.51;65.07
31225;BME280;17847;31.524;74.366;2023-05-01T11:25:31;98156.44;;;25.50;64.38
31225;BME280;17847;31.524;74.366;2023-05-01T11:28:02;98148.03;;;25.52;64.38
31225;BME280;17847;31.524;74.366;2023-05-01T11:30:38;98154.06;;;25.48;64.19
31225;BME280;17847;31.524;74.366;2023-05-01T11:33:08;98153.75;;;25.50;64.10
31225;BME280;17847;31.524;74.366;2023-05-01T11:35:38;98151.75;;;25.42;62.28
31225;BME280;17847;31.524;74.366;2023-05-01T11:38:18;98158.59;;;25.39;63.84
31225;BME280;17847;31.524;74.366;2023-05-01T11:40:56;98156.69;;;25.40;64.14
31225;BME280;17847;31.524;74.366;2023-05-01T11:43:27;98153.97;;;25.40;64.29
31225;BME280;17847;31.524;74.366;2023-05-01T11:45:57;98159.28;;;25.45;64.17
31225;BME280;17847;31.524;74.366;2023-05-01T11:48:32;98154.34;;;25.47;64.09
31225;BME280;17847;31.524;74.366;2023-05-01T11:51:11;98160.50;;;25.53;64.28
31225;BME280;17847;31.524;74.366;2023-05-01T11:53:41;98161.28;;;25.53;63.66
31225;BME280;17847;31.524;74.366;2023-05-01T11:56:20;98169.44;;;25.53;62.57
31225;BME280;17847;31.524;74.366;2023-05-01T11:58:58;98168.03;;;25.56;63.99
31225;BME280;17847;31.524;74.366;2023-05-01T12:01:40;98162.63;;;25.56;63.74
31225;BME280;17847;31.524;74.366;2023-05-01T12:04:21;98164.53;;;25.55;64.42
31225;BME280;17847;31.524;74.366;2023-05-01T12:06:51;98157.78;;;25.53;64.32
31225;BME280;17847;31.524;74.366;2023-05-01T12:09:23;98157.78;;;25.53;63.82
31225;BME280;17847;31.524;74.366;2023-05-01T12:11:52;98158.59;;;25.53;64.47
31225;BME280;17847;31.524;74.366;2023-05-01T12:14:23;98156.44;;;25.50;63.80
31225;BME280;17847;31.524;74.366;2023-05-01T12:16:52;98154.88;;;25.49;63.79
31225;BME280;17847;31.524;74.366;2023-05-01T12:19:22;98150.66;;;25.43;62.45
31225;BME280;17847;31.524;74.366;2023-05-01T12:22:18;98151.75;;;25.42;58.74
31225;BME280;17847;31.524;74.366;2023-05-01T12:24:52;98155.97;;;25.48;58.40
31225;BME280;17847;31.524;74.366;2023-05-01T12:27:22;98161.28;;;25.53;59.37
31225;BME280;17847;31.524;74.366;2023-05-01T12:29:52;98156.38;;;25.55;58.12
31225;BME280;17847;31.524;74.366;2023-05-01T12:32:29;98157.19;;;25.56;58.78
31225;BME280;17847;31.524;74.366;2023-05-01T12:34:59;98157.72;;;25.58;59.68
31225;BME280;17847;31.524;74.366;2023-05-01T12:37:33;98159.09;;;25.55;59.07
31225;BME280;17847;31.524;74.366;2023-05-01T12:40:03;98154.19;;;25.57;59.11
31225;BME280;17847;31.524;74.366;2023-05-01T12:42:33;98160.41;;;25.58;59.47
31225;BME280;17847;31.524;74.366;2023-05-01T12:45:04;98161.28;;;25.53;58.54
31225;BME280;17847;31.524;74.366;2023-05-01T12:47:37;98161.50;;;25.57;59.45
31225;BME280;17847;31.524;74.366;2023-05-01T12:50:07;98161.28;;;25.53;62.02
31225;BME280;17847;31.524;74.366;2023-05-01T12:52:38;98168.22;;;25.45;61.89
31225;BME280;17847;31.524;74.366;2023-05-01T12:55:08;98167.00;;;25.38;61.47
31225;BME280;17847;31.524;74.366;2023-05-01T12:57:51;98170.00;;;25.36;59.91
31225;BME280;17847;31.524;74.366;2023-05-01T13:00:21;98170.63;;;25.33;62.09
31225;BME280;17847;31.524;74.366;2023-05-01T13:02:51;98171.03;;;25.27;62.65
31225;BME280;17847;31.524;74.366;2023-05-01T13:05:21;98170.81;;;25.23;61.97
31225;BME280;17847;31.524;74.366;2023-05-01T13:07:51;98178.75;;;25.20;62.29
31225;BME280;17847;31.524;74.366;2023-05-01T13:10:30;98182.34;;;25.15;63.14
31225;BME280;17847;31.524;74.366;2023-05-01T13:13:00;98182.44;;;25.10;63.43
31225;BME280;17847;31.524;74.366;2023-05-01T13:15:29;98193.09;;;25.07;63.58
31225;BME280;17847;31.524;74.366;2023-05-01T13:18:03;98198.91;;;25.00;60.92
31225;BME280;17847;31.524;74.366;2023-05-01T13:20:33;98194.06;;;24.97;64.00
31225;BME280;17847;31.524;74.366;2023-05-01T13:23:09;98208.31;;;24.89;63.55
31225;BME280;17847;31.524;74.366;2023-05-01T13:25:40;98214.31;;;24.86;64.23
31225;BME280;17847;31.524;74.366;2023-05-01T13:28:16;98215.19;;;24.81;64.78
31225;BME280;17847;31.524;74.366;2023-05-01T13:30:47;98226.38;;;24.75;64.96
31225;BME280;17847;31.524;74.366;2023-05-01T13:33:16;98226.19;;;24.71;64.89
31225;BME280;17847;31.524;74.366;2023-05-01T13:35:46;98224.88;;;24.69;65.34
31225;BME280;17847;31.524;74.366;2023-05-01T13:38:16;98235.47;;;24.65;65.87
31225;BME280;17847;31.524;74.366;2023-05-01T13:40:51;98231.75;;;24.61;65.81
31225;BME280;17847;31.524;74.366;2023-05-01T13:43:20;98238.84;;;24.57;66.14
31225;BME280;17847;31.524;74.366;2023-05-01T13:45:56;98246.75;;;24.53;66.40
31225;BME280;17847;31.524;74.366;2023-05-01T13:48:26;98246.84;;;24.48;66.89
31225;BME280;17847;31.524;74.366;2023-05-01T13:50:55;98254.69;;;24.50;66.88